Aviation Digital Data Service (ADDS)

Output produced by METARs form (2338 UTC 15 December 2017)
found at http://www.aviationweather.gov/adds/metars/
 
KUCP 152330Z AUTO 26017G23KT 1 1/4SM -SN BR SCT008 OVC014 M05/M06 A2989 RMK AO2 P0000
KUCP 152325Z AUTO 26016G23KT 3/4SM -SN BR SCT006 BKN014 OVC023 M05/M06 A2989 RMK AO2 P0000 RVRNO
KUCP 152318Z AUTO 27015G23KT 1/2SM SN FZFG SCT008 BKN015 OVC035 M04/M06 A2990 RMK AO2 P0000 RVRNO
KUCP 152315Z AUTO 28013G22KT 1SM -SN BR SCT008 BKN019 OVC035 M04/M06 A2990 RMK AO2 CIG 013V029 P0000 RVRNO
KUCP 152312Z AUTO 30012G18KT 2SM -SN BR FEW008 BKN019 OVC050 M04/M06 A2990 RMK AO2 CIG 013V029 P0000
KUCP 152256Z AUTO 22009G15KT 9SM -SN FEW027 BKN035 OVC070 M04/M07 A2988 RMK AO2 SLP151 P0000 T10391067
KUCP 152156Z AUTO 22008G15KT 5SM -SN FEW036 OVC060 M04/M08 A2987 RMK AO2 SLP148 P0000 T10391078
KUCP 152056Z AUTO 23010G15KT 9SM -SN OVC041 M03/M09 A2986 RMK AO2 SNB25 SLP146 P0000 60000 T10331089 55010
KUCP 151956Z AUTO 22008G15KT 10SM OVC047 M03/M10 A2986 RMK AO2 SLP145 T10331100
KUCP 151856Z AUTO 24012KT 10SM OVC043 M03/M11 A2987 RMK AO2 SLP148 T10331106
KUCP 151756Z AUTO VRB05KT 10SM OVC045 M03/M11 A2989 RMK AO2 SLP156 T10331106 11033 21133 58023
KUCP 151656Z AUTO 21004KT 10SM BKN100 M05/M11 A2992 RMK AO2 SLP166 T10501106
KUCP 151556Z AUTO 22004KT 10SM OVC100 M06/M10 A2995 RMK AO2 SLP176 T10611100
KUCP 151456Z AUTO 22003KT 9SM FEW110 M08/M10 A2996 RMK AO2 SLP181 T10831100 56008 TSNO
KUCP 151356Z AUTO 17003KT 7SM CLR M12/M13 A2997 RMK AO2 SLP185 T11221133
KUCP 151256Z AUTO 00000KT 8SM SCT029 M13/M14 A2997 RMK AO2 SLP187 T11331139
KUCP 151056Z AUTO 00000KT 10SM OVC033 M13/M14 A2999 RMK AO2 SLP192 T11281139
KUCP 150956Z AUTO 00000KT 10SM OVC033 M14/M15 A3000 RMK AO2 SLP193 T11391150
KUCP 150856Z AUTO 00000KT 10SM BKN033 M14/M16 A3001 RMK AO2 SLP198 T11441161 58013
KUCP 150756Z AUTO 00000KT 9SM CLR M14/M16 A3003 RMK AO2 SLP203 T11391161
KUCP 150656Z AUTO 00000KT 8SM CLR M14/M16 A3004 RMK AO2 SLP207 T11391161
KUCP 150556Z AUTO 00000KT 10SM CLR M13/M16 A3005 RMK AO2 SLP210 T11331161 11089 21133 58002
KUCP 150456Z AUTO 00000KT 10SM CLR M13/M14 A3006 RMK AO2 SLP214 T11281144 410281128
KUCP 150356Z AUTO 00000KT 10SM CLR M12/M13 A3006 RMK AO2 SLP213 T11171128 TSNO
KUCP 150256Z AUTO 00000KT 10SM CLR M11/M14 A3006 RMK AO2 SLP213 T11111139 51003
KUCP 150156Z AUTO 00000KT 10SM SCT028 OVC036 M09/M12 A3005 RMK AO2 SLP210 T10941122
KUCP 150056Z AUTO 00000KT 10SM FEW030 OVC036 M09/M11 A3005 RMK AO2 SLP212 T10941111
KUCP 142356Z AUTO 00000KT 10SM OVC038 M09/M12 A3005 RMK AO2 SLP209 60000 T10891117 11028 21089 53019